Caninde de Sao Francisco, Brazil
Current Conditions -  °F | °C
As of 12:00 PM on Thursday 18 Dec 2014 (Local Time) from SBUF Reporting Station
Broken Clouds Broken Clouds  
Wind Chill: 88°   Ceiling: 7000
Heat Index: 90°   Visibility: 6mi
Dew Point: 66°   Wind: 5mph
Humidity: 49%   Direction: 20°NNE
Pressure: 29.94"   Gusts: NA
Location:  9.65°S, 37.8°W
Report Text: SBUF 181500Z 02004KT 9999 FEW020 BKN070 31/19 Q1014
Loading
Personal Weather Stations






























Interactive Weather Map New forecast layout! Learn more

10-Day Weather Forecast

Advertisements
Track Severe Weather on mobile